sensor_id;sensor_type;location;lat;lon;timestamp;temperature;humidity
53208;DHT22;39093;52.788;6.940;2022-11-20T00:01:09;-1.20;99.90
53208;DHT22;39093;52.788;6.940;2022-11-20T00:03:36;-1.10;99.90
53208;DHT22;39093;52.788;6.940;2022-11-20T00:06:05;-1.10;99.90
53208;DHT22;39093;52.788;6.940;2022-11-20T00:08:33;-1.10;99.90
53208;DHT22;39093;52.788;6.940;2022-11-20T00:11:08;-1.10;99.90
53208;DHT22;39093;52.788;6.940;2022-11-20T00:13:42;-1.00;99.90
53208;DHT22;39093;52.788;6.940;2022-11-20T00:16:10;-1.00;99.90
53208;DHT22;39093;52.788;6.940;2022-11-20T00:18:37;-0.90;99.90
53208;DHT22;39093;52.788;6.940;2022-11-20T00:21:25;-0.70;99.90
53208;DHT22;39093;52.788;6.940;2022-11-20T00:23:54;-0.90;99.90
53208;DHT22;39093;52.788;6.940;2022-11-20T00:26:22;-0.80;99.90
53208;DHT22;39093;52.788;6.940;2022-11-20T00:28:52;-0.80;99.90
53208;DHT22;39093;52.788;6.940;2022-11-20T00:31:19;-0.80;99.90
53208;DHT22;39093;52.788;6.940;2022-11-20T00:33:46;-0.80;99.90
53208;DHT22;39093;52.788;6.940;2022-11-20T00:36:26;-0.80;99.90
53208;DHT22;39093;52.788;6.940;2022-11-20T00:38:54;-0.80;99.90
53208;DHT22;39093;52.788;6.940;2022-11-20T00:41:22;-0.80;99.90
53208;DHT22;39093;52.788;6.940;2022-11-20T00:43:51;-0.80;99.90
53208;DHT22;39093;52.788;6.940;2022-11-20T00:46:21;-0.80;99.90
53208;DHT22;39093;52.788;6.940;2022-11-20T00:48:48;-0.80;99.90
53208;DHT22;39093;52.788;6.940;2022-11-20T00:51:21;-0.70;99.90
53208;DHT22;39093;52.788;6.940;2022-11-20T00:53:49;-0.70;99.90
53208;DHT22;39093;52.788;6.940;2022-11-20T00:56:18;-0.70;99.90
53208;DHT22;39093;52.788;6.940;2022-11-20T00:58:47;-0.60;99.90
53208;DHT22;39093;52.788;6.940;2022-11-20T01:01:19;-0.60;99.90
53208;DHT22;39093;52.788;6.940;2022-11-20T01:03:51;-0.60;99.90
53208;DHT22;39093;52.788;6.940;2022-11-20T01:06:23;-0.60;99.90
53208;DHT22;39093;52.788;6.940;2022-11-20T01:08:51;-0.60;99.90
53208;DHT22;39093;52.788;6.940;2022-11-20T01:11:20;-0.60;99.90
53208;DHT22;39093;52.788;6.940;2022-11-20T01:13:49;-0.60;99.90
53208;DHT22;39093;52.788;6.940;2022-11-20T01:16:20;-0.60;99.90
53208;DHT22;39093;52.788;6.940;2022-11-20T01:18:49;-0.60;99.90
53208;DHT22;39093;52.788;6.940;2022-11-20T01:21:20;-0.50;99.90
53208;DHT22;39093;52.788;6.940;2022-11-20T01:23:49;-0.50;99.90
53208;DHT22;39093;52.788;6.940;2022-11-20T01:26:19;-0.60;99.90
53208;DHT22;39093;52.788;6.940;2022-11-20T01:28:47;-0.50;99.90
53208;DHT22;39093;52.788;6.940;2022-11-20T01:31:20;-0.50;99.90
53208;DHT22;39093;52.788;6.940;2022-11-20T01:33:49;-0.50;99.90
53208;DHT22;39093;52.788;6.940;2022-11-20T01:36:17;-0.50;99.90
53208;DHT22;39093;52.788;6.940;2022-11-20T01:38:45;-0.50;99.90
53208;DHT22;39093;52.788;6.940;2022-11-20T01:41:14;-0.50;99.90
53208;DHT22;39093;52.788;6.940;2022-11-20T01:44:02;-0.50;99.90
53208;DHT22;39093;52.788;6.940;2022-11-20T01:46:36;-0.40;99.90
53208;DHT22;39093;52.788;6.940;2022-11-20T01:49:22;-0.50;99.90
53208;DHT22;39093;52.788;6.940;2022-11-20T01:51:59;-0.40;99.90
53208;DHT22;39093;52.788;6.940;2022-11-20T01:54:33;-0.50;99.90
53208;DHT22;39093;52.788;6.940;2022-11-20T01:57:03;-0.40;99.90
53208;DHT22;39093;52.788;6.940;2022-11-20T01:59:33;-0.40;99.90
53208;DHT22;39093;52.788;6.940;2022-11-20T02:02:01;-0.40;99.90
53208;DHT22;39093;52.788;6.940;2022-11-20T02:04:27;-0.40;99.90
53208;DHT22;39093;52.788;6.940;2022-11-20T02:07:00;-0.40;99.90
53208;DHT22;39093;52.788;6.940;2022-11-20T02:09:28;-0.40;99.90
53208;DHT22;39093;52.788;6.940;2022-11-20T02:11:55;-0.40;99.90
53208;DHT22;39093;52.788;6.940;2022-11-20T02:14:23;-0.40;99.90
53208;DHT22;39093;52.788;6.940;2022-11-20T02:16:51;-0.30;99.90
53208;DHT22;39093;52.788;6.940;2022-11-20T02:19:30;-0.40;99.90
53208;DHT22;39093;52.788;6.940;2022-11-20T02:24:36;-0.30;99.90
53208;DHT22;39093;52.788;6.940;2022-11-20T02:27:13;-0.30;99.90
53208;DHT22;39093;52.788;6.940;2022-11-20T02:30:01;-0.20;99.90
53208;DHT22;39093;52.788;6.940;2022-11-20T02:32:32;-0.30;99.90
53208;DHT22;39093;52.788;6.940;2022-11-20T02:35:35;-0.30;99.90
53208;DHT22;39093;52.788;6.940;2022-11-20T02:37:54;-0.30;99.90
53208;DHT22;39093;52.788;6.940;2022-11-20T02:40:22;-0.30;99.90
53208;DHT22;39093;52.788;6.940;2022-11-20T02:42:53;-0.30;99.90
53208;DHT22;39093;52.788;6.940;2022-11-20T02:45:20;-0.20;99.90
53208;DHT22;39093;52.788;6.940;2022-11-20T02:47:47;-0.30;99.90
53208;DHT22;39093;52.788;6.940;2022-11-20T02:50:14;-0.20;99.90
53208;DHT22;39093;52.788;6.940;2022-11-20T02:52:41;-0.20;99.90
53208;DHT22;39093;52.788;6.940;2022-11-20T02:55:08;-0.20;99.90
53208;DHT22;39093;52.788;6.940;2022-11-20T02:57:35;-0.20;99.90
53208;DHT22;39093;52.788;6.940;2022-11-20T03:00:03;-0.10;99.90
53208;DHT22;39093;52.788;6.940;2022-11-20T03:02:31;-0.20;99.90
53208;DHT22;39093;52.788;6.940;2022-11-20T03:04:58;-0.20;99.90
53208;DHT22;39093;52.788;6.940;2022-11-20T03:07:25;-0.20;99.90
53208;DHT22;39093;52.788;6.940;2022-11-20T03:09:52;-0.20;99.90
53208;DHT22;39093;52.788;6.940;2022-11-20T03:12:19;-0.20;99.90
53208;DHT22;39093;52.788;6.940;2022-11-20T03:14:45;-0.10;99.90
53208;DHT22;39093;52.788;6.940;2022-11-20T03:17:18;-0.10;99.90
53208;DHT22;39093;52.788;6.940;2022-11-20T03:19:45;-0.10;99.90
53208;DHT22;39093;52.788;6.940;2022-11-20T03:22:12;-0.10;99.90
53208;DHT22;39093;52.788;6.940;2022-11-20T03:24:39;-0.10;99.90
53208;DHT22;39093;52.788;6.940;2022-11-20T03:27:06;-0.10;99.90
53208;DHT22;39093;52.788;6.940;2022-11-20T03:29:35;-0.10;99.90
53208;DHT22;39093;52.788;6.940;2022-11-20T03:32:02;-0.10;99.90
53208;DHT22;39093;52.788;6.940;2022-11-20T03:34:29;-0.10;99.90
53208;DHT22;39093;52.788;6.940;2022-11-20T03:36:55;-0.10;99.90
53208;DHT22;39093;52.788;6.940;2022-11-20T03:39:22;-0.10;99.90
53208;DHT22;39093;52.788;6.940;2022-11-20T03:41:49;-0.10;99.90
53208;DHT22;39093;52.788;6.940;2022-11-20T03:44:16;-0.10;99.90
53208;DHT22;39093;52.788;6.940;2022-11-20T03:46:43;-0.10;99.90
53208;DHT22;39093;52.788;6.940;2022-11-20T03:49:10;-0.10;99.90
53208;DHT22;39093;52.788;6.940;2022-11-20T03:51:37;-0.10;99.90
53208;DHT22;39093;52.788;6.940;2022-11-20T03:54:06;-0.10;99.90
53208;DHT22;39093;52.788;6.940;2022-11-20T03:56:36;0.00;99.90
53208;DHT22;39093;52.788;6.940;2022-11-20T03:59:04;0.00;99.90
53208;DHT22;39093;52.788;6.940;2022-11-20T04:01:34;0.00;99.90
53208;DHT22;39093;52.788;6.940;2022-11-20T04:04:01;-0.10;99.90
53208;DHT22;39093;52.788;6.940;2022-11-20T04:06:30;0.00;99.90
53208;DHT22;39093;52.788;6.940;2022-11-20T04:08:57;0.00;99.90
53208;DHT22;39093;52.788;6.940;2022-11-20T04:11:29;0.00;99.90
53208;DHT22;39093;52.788;6.940;2022-11-20T04:13:59;0.00;99.90
53208;DHT22;39093;52.788;6.940;2022-11-20T04:16:28;0.00;99.90
53208;DHT22;39093;52.788;6.940;2022-11-20T04:18:57;0.00;99.90
53208;DHT22;39093;52.788;6.940;2022-11-20T04:21:25;0.00;99.90
53208;DHT22;39093;52.788;6.940;2022-11-20T04:23:53;0.10;99.90
53208;DHT22;39093;52.788;6.940;2022-11-20T04:26:22;0.20;99.90
53208;DHT22;39093;52.788;6.940;2022-11-20T04:28:49;0.10;99.90
53208;DHT22;39093;52.788;6.940;2022-11-20T04:31:18;0.10;99.90
53208;DHT22;39093;52.788;6.940;2022-11-20T04:33:45;0.10;99.90
53208;DHT22;39093;52.788;6.940;2022-11-20T04:36:14;0.10;99.90
53208;DHT22;39093;52.788;6.940;2022-11-20T04:38:42;0.10;99.90
53208;DHT22;39093;52.788;6.940;2022-11-20T04:41:17;0.10;99.90
53208;DHT22;39093;52.788;6.940;2022-11-20T04:43:48;0.10;99.90
53208;DHT22;39093;52.788;6.940;2022-11-20T04:46:20;0.20;99.90
53208;DHT22;39093;52.788;6.940;2022-11-20T04:48:47;0.10;99.90
53208;DHT22;39093;52.788;6.940;2022-11-20T04:51:14;0.20;99.90
53208;DHT22;39093;52.788;6.940;2022-11-20T04:53:41;0.20;99.90
53208;DHT22;39093;52.788;6.940;2022-11-20T04:56:10;0.30;99.90
53208;DHT22;39093;52.788;6.940;2022-11-20T04:58:38;0.20;99.90
53208;DHT22;39093;52.788;6.940;2022-11-20T05:01:14;0.20;99.90
53208;DHT22;39093;52.788;6.940;2022-11-20T05:03:42;0.20;99.90
53208;DHT22;39093;52.788;6.940;2022-11-20T05:06:11;0.20;99.90
53208;DHT22;39093;52.788;6.940;2022-11-20T05:08:39;0.30;99.90
53208;DHT22;39093;52.788;6.940;2022-11-20T05:11:08;0.20;99.90
53208;DHT22;39093;52.788;6.940;2022-11-20T05:13:35;0.20;99.90
53208;DHT22;39093;52.788;6.940;2022-11-20T05:16:04;0.30;99.90
53208;DHT22;39093;52.788;6.940;2022-11-20T05:18:32;0.20;99.90
53208;DHT22;39093;52.788;6.940;2022-11-20T05:20:59;0.20;99.90
53208;DHT22;39093;52.788;6.940;2022-11-20T05:23:26;0.20;99.90
53208;DHT22;39093;52.788;6.940;2022-11-20T05:25:54;0.20;99.90
53208;DHT22;39093;52.788;6.940;2022-11-20T05:28:25;0.20;99.90
53208;DHT22;39093;52.788;6.940;2022-11-20T05:30:53;0.20;99.90
53208;DHT22;39093;52.788;6.940;2022-11-20T05:33:20;0.20;99.90
53208;DHT22;39093;52.788;6.940;2022-11-20T05:35:47;0.20;99.90
53208;DHT22;39093;52.788;6.940;2022-11-20T05:38:15;0.30;99.90
53208;DHT22;39093;52.788;6.940;2022-11-20T05:40:42;0.20;99.90
53208;DHT22;39093;52.788;6.940;2022-11-20T05:43:09;0.20;99.90
53208;DHT22;39093;52.788;6.940;2022-11-20T05:45:35;0.20;99.90
53208;DHT22;39093;52.788;6.940;2022-11-20T05:48:03;0.30;99.90
53208;DHT22;39093;52.788;6.940;2022-11-20T05:50:30;0.30;99.90
53208;DHT22;39093;52.788;6.940;2022-11-20T05:53:00;0.20;99.90
53208;DHT22;39093;52.788;6.940;2022-11-20T05:55:27;0.20;99.90
53208;DHT22;39093;52.788;6.940;2022-11-20T05:57:54;0.20;99.90
53208;DHT22;39093;52.788;6.940;2022-11-20T06:00:22;0.20;99.90
53208;DHT22;39093;52.788;6.940;2022-11-20T06:02:49;0.30;99.90
53208;DHT22;39093;52.788;6.940;2022-11-20T06:05:16;0.30;99.90
53208;DHT22;39093;52.788;6.940;2022-11-20T06:07:43;0.30;99.90
53208;DHT22;39093;52.788;6.940;2022-11-20T06:10:10;0.30;99.90
53208;DHT22;39093;52.788;6.940;2022-11-20T06:12:37;0.30;99.90
53208;DHT22;39093;52.788;6.940;2022-11-20T06:15:05;0.30;99.90
53208;DHT22;39093;52.788;6.940;2022-11-20T06:17:32;0.30;99.90
53208;DHT22;39093;52.788;6.940;2022-11-20T06:19:59;0.30;99.90
53208;DHT22;39093;52.788;6.940;2022-11-20T06:22:26;0.30;99.90
53208;DHT22;39093;52.788;6.940;2022-11-20T06:24:53;0.40;99.90
53208;DHT22;39093;52.788;6.940;2022-11-20T06:27:19;0.30;99.90
53208;DHT22;39093;52.788;6.940;2022-11-20T06:29:46;0.30;99.90
53208;DHT22;39093;52.788;6.940;2022-11-20T06:32:13;0.30;99.90
53208;DHT22;39093;52.788;6.940;2022-11-20T06:34:40;0.30;99.90
53208;DHT22;39093;52.788;6.940;2022-11-20T06:37:07;0.40;99.90
53208;DHT22;39093;52.788;6.940;2022-11-20T06:39:34;0.40;99.90
53208;DHT22;39093;52.788;6.940;2022-11-20T06:42:00;0.40;99.90
53208;DHT22;39093;52.788;6.940;2022-11-20T06:44:28;0.40;99.90
53208;DHT22;39093;52.788;6.940;2022-11-20T06:46:54;0.40;99.90
53208;DHT22;39093;52.788;6.940;2022-11-20T06:49:21;0.30;99.90
53208;DHT22;39093;52.788;6.940;2022-11-20T06:51:48;0.40;99.90
53208;DHT22;39093;52.788;6.940;2022-11-20T06:54:15;0.40;99.90
53208;DHT22;39093;52.788;6.940;2022-11-20T06:56:42;0.40;99.90
53208;DHT22;39093;52.788;6.940;2022-11-20T06:59:12;0.40;99.90
53208;DHT22;39093;52.788;6.940;2022-11-20T07:01:39;0.40;99.90
53208;DHT22;39093;52.788;6.940;2022-11-20T07:04:06;0.40;99.90
53208;DHT22;39093;52.788;6.940;2022-11-20T07:06:33;0.40;99.90
53208;DHT22;39093;52.788;6.940;2022-11-20T07:09:00;0.40;99.90
53208;DHT22;39093;52.788;6.940;2022-11-20T07:11:27;0.30;99.90
53208;DHT22;39093;52.788;6.940;2022-11-20T07:13:53;0.40;99.90
53208;DHT22;39093;52.788;6.940;2022-11-20T07:16:20;0.40;99.90
53208;DHT22;39093;52.788;6.940;2022-11-20T07:18:47;0.30;99.90
53208;DHT22;39093;52.788;6.940;2022-11-20T07:21:16;0.30;99.90
53208;DHT22;39093;52.788;6.940;2022-11-20T07:23:43;0.30;99.90
53208;DHT22;39093;52.788;6.940;2022-11-20T07:26:10;0.40;99.90
53208;DHT22;39093;52.788;6.940;2022-11-20T07:28:38;0.40;99.90
53208;DHT22;39093;52.788;6.940;2022-11-20T07:31:05;0.40;99.90
53208;DHT22;39093;52.788;6.940;2022-11-20T07:33:33;0.40;99.90
53208;DHT22;39093;52.788;6.940;2022-11-20T07:36:00;0.40;99.90
53208;DHT22;39093;52.788;6.940;2022-11-20T07:38:28;0.40;99.90
53208;DHT22;39093;52.788;6.940;2022-11-20T07:40:56;0.40;99.90
53208;DHT22;39093;52.788;6.940;2022-11-20T07:43:24;0.40;99.90
53208;DHT22;39093;52.788;6.940;2022-11-20T07:45:51;0.40;99.90
53208;DHT22;39093;52.788;6.940;2022-11-20T07:48:18;0.40;99.90
53208;DHT22;39093;52.788;6.940;2022-11-20T07:50:45;0.40;99.90
53208;DHT22;39093;52.788;6.940;2022-11-20T07:53:12;0.50;99.90
53208;DHT22;39093;52.788;6.940;2022-11-20T07:55:40;0.50;99.90
53208;DHT22;39093;52.788;6.940;2022-11-20T07:58:07;0.50;99.90
53208;DHT22;39093;52.788;6.940;2022-11-20T08:00:34;0.50;99.90
53208;DHT22;39093;52.788;6.940;2022-11-20T08:03:03;0.50;99.90
53208;DHT22;39093;52.788;6.940;2022-11-20T08:05:31;0.50;99.90
53208;DHT22;39093;52.788;6.940;2022-11-20T08:07:58;0.60;99.90
53208;DHT22;39093;52.788;6.940;2022-11-20T08:10:25;0.50;99.90
53208;DHT22;39093;52.788;6.940;2022-11-20T08:12:52;0.60;99.90
53208;DHT22;39093;52.788;6.940;2022-11-20T08:15:39;0.60;99.90
53208;DHT22;39093;52.788;6.940;2022-11-20T08:18:08;0.50;99.90
53208;DHT22;39093;52.788;6.940;2022-11-20T08:20:55;0.60;99.90
53208;DHT22;39093;52.788;6.940;2022-11-20T08:23:22;0.60;99.90
53208;DHT22;39093;52.788;6.940;2022-11-20T08:25:50;0.60;99.90
53208;DHT22;39093;52.788;6.940;2022-11-20T08:28:18;0.50;99.90
53208;DHT22;39093;52.788;6.940;2022-11-20T08:30:49;0.50;99.90
53208;DHT22;39093;52.788;6.940;2022-11-20T08:33:17;0.60;99.90
53208;DHT22;39093;52.788;6.940;2022-11-20T08:35:44;0.50;99.90
53208;DHT22;39093;52.788;6.940;2022-11-20T08:38:11;0.60;99.90
53208;DHT22;39093;52.788;6.940;2022-11-20T08:40:38;0.60;99.90
53208;DHT22;39093;52.788;6.940;2022-11-20T08:43:05;0.60;99.90
53208;DHT22;39093;52.788;6.940;2022-11-20T08:45:32;0.70;99.90
53208;DHT22;39093;52.788;6.940;2022-11-20T08:48:02;0.80;99.90
53208;DHT22;39093;52.788;6.940;2022-11-20T08:50:30;0.80;99.90
53208;DHT22;39093;52.788;6.940;2022-11-20T08:53:04;0.80;99.90
53208;DHT22;39093;52.788;6.940;2022-11-20T08:55:31;0.80;99.90
53208;DHT22;39093;52.788;6.940;2022-11-20T08:57:58;0.80;99.90
53208;DHT22;39093;52.788;6.940;2022-11-20T09:00:24;0.80;99.90
53208;DHT22;39093;52.788;6.940;2022-11-20T09:02:51;0.90;99.90
53208;DHT22;39093;52.788;6.940;2022-11-20T09:05:18;0.90;99.90
53208;DHT22;39093;52.788;6.940;2022-11-20T09:07:45;0.90;99.90
53208;DHT22;39093;52.788;6.940;2022-11-20T09:10:14;1.00;99.90
53208;DHT22;39093;52.788;6.940;2022-11-20T09:12:50;0.90;99.90
53208;DHT22;39093;52.788;6.940;2022-11-20T09:15:19;1.00;99.90
53208;DHT22;39093;52.788;6.940;2022-11-20T09:17:56;0.90;99.90
53208;DHT22;39093;52.788;6.940;2022-11-20T09:20:25;1.00;99.90
53208;DHT22;39093;52.788;6.940;2022-11-20T09:22:53;1.00;99.90
53208;DHT22;39093;52.788;6.940;2022-11-20T09:25:20;1.00;99.90
53208;DHT22;39093;52.788;6.940;2022-11-20T09:27:48;1.00;99.90
53208;DHT22;39093;52.788;6.940;2022-11-20T09:30:15;1.10;99.90
53208;DHT22;39093;52.788;6.940;2022-11-20T09:32:43;1.10;99.90
53208;DHT22;39093;52.788;6.940;2022-11-20T09:35:09;1.10;99.90
53208;DHT22;39093;52.788;6.940;2022-11-20T09:37:37;1.10;99.90
53208;DHT22;39093;52.788;6.940;2022-11-20T09:40:05;1.20;99.90
53208;DHT22;39093;52.788;6.940;2022-11-20T09:42:43;1.20;99.90
53208;DHT22;39093;52.788;6.940;2022-11-20T09:56:09;1.40;99.90
53208;DHT22;39093;52.788;6.940;2022-11-20T09:58:47;1.50;99.90
53208;DHT22;39093;52.788;6.940;2022-11-20T10:01:20;1.60;99.90
53208;DHT22;39093;52.788;6.940;2022-11-20T10:06:37;1.50;99.90
53208;DHT22;39093;52.788;6.940;2022-11-20T10:09:25;1.60;99.90
53208;DHT22;39093;52.788;6.940;2022-11-20T10:12:12;1.60;99.90
53208;DHT22;39093;52.788;6.940;2022-11-20T10:20:02;1.90;99.90
53208;DHT22;39093;52.788;6.940;2022-11-20T10:31:37;2.30;99.90
53208;DHT22;39093;52.788;6.940;2022-11-20T10:37:11;2.50;99.90
53208;DHT22;39093;52.788;6.940;2022-11-20T10:43:32;2.70;99.90
53208;DHT22;39093;52.788;6.940;2022-11-20T10:45:48;2.80;99.90
53208;DHT22;39093;52.788;6.940;2022-11-20T10:48:20;2.90;99.90
53208;DHT22;39093;52.788;6.940;2022-11-20T10:56:05;3.00;99.90
53208;DHT22;39093;52.788;6.940;2022-11-20T11:01:13;3.10;99.90
53208;DHT22;39093;52.788;6.940;2022-11-20T11:03:42;3.10;99.90
53208;DHT22;39093;52.788;6.940;2022-11-20T11:06:26;3.20;99.90
53208;DHT22;39093;52.788;6.940;2022-11-20T11:08:59;3.20;99.90
53208;DHT22;39093;52.788;6.940;2022-11-20T11:11:32;3.20;99.90
53208;DHT22;39093;52.788;6.940;2022-11-20T11:14:10;3.30;99.90
53208;DHT22;39093;52.788;6.940;2022-11-20T11:16:50;3.30;99.90
53208;DHT22;39093;52.788;6.940;2022-11-20T11:19:17;3.40;99.90
53208;DHT22;39093;52.788;6.940;2022-11-20T11:21:58;3.40;99.90
53208;DHT22;39093;52.788;6.940;2022-11-20T11:24:27;3.30;99.90
53208;DHT22;39093;52.788;6.940;2022-11-20T11:27:13;3.30;99.90
53208;DHT22;39093;52.788;6.940;2022-11-20T11:29:43;3.20;99.90
53208;DHT22;39093;52.788;6.940;2022-11-20T11:32:17;3.20;99.90
53208;DHT22;39093;52.788;6.940;2022-11-20T11:34:45;3.30;99.90
53208;DHT22;39093;52.788;6.940;2022-11-20T11:37:17;3.20;99.90
53208;DHT22;39093;52.788;6.940;2022-11-20T11:39:46;3.20;99.90
53208;DHT22;39093;52.788;6.940;2022-11-20T11:42:30;3.20;99.90
53208;DHT22;39093;52.788;6.940;2022-11-20T11:44:59;3.20;99.90
53208;DHT22;39093;52.788;6.940;2022-11-20T11:47:43;3.20;99.90
53208;DHT22;39093;52.788;6.940;2022-11-20T11:50:17;3.30;99.90
53208;DHT22;39093;52.788;6.940;2022-11-20T11:52:46;3.10;99.90
53208;DHT22;39093;52.788;6.940;2022-11-20T11:55:30;3.20;99.90
53208;DHT22;39093;52.788;6.940;2022-11-20T12:06:34;2.90;99.90
53208;DHT22;39093;52.788;6.940;2022-11-20T12:09:05;3.00;99.90
53208;DHT22;39093;52.788;6.940;2022-11-20T12:11:47;3.00;99.90
53208;DHT22;39093;52.788;6.940;2022-11-20T12:14:30;3.10;99.90
53208;DHT22;39093;52.788;6.940;2022-11-20T12:17:00;3.10;99.90
53208;DHT22;39093;52.788;6.940;2022-11-20T12:19:30;3.20;99.90
53208;DHT22;39093;52.788;6.940;2022-11-20T12:30:15;3.50;99.90
53208;DHT22;39093;52.788;6.940;2022-11-20T12:59:06;3.20;99.90
53208;DHT22;39093;52.788;6.940;2022-11-20T13:01:50;3.40;99.90
53208;DHT22;39093;52.788;6.940;2022-11-20T13:07:14;3.30;99.90
53208;DHT22;39093;52.788;6.940;2022-11-20T13:09:49;3.40;99.90
53208;DHT22;39093;52.788;6.940;2022-11-20T13:12:36;3.40;99.90
53208;DHT22;39093;52.788;6.940;2022-11-20T13:17:59;3.30;99.90
53208;DHT22;39093;52.788;6.940;2022-11-20T13:20:27;3.30;99.90
53208;DHT22;39093;52.788;6.940;2022-11-20T13:22:55;3.30;99.90
53208;DHT22;39093;52.788;6.940;2022-11-20T13:25:35;3.30;99.90
53208;DHT22;39093;52.788;6.940;2022-11-20T13:30:54;3.30;99.90
53208;DHT22;39093;52.788;6.940;2022-11-20T13:33:39;3.20;99.90
53208;DHT22;39093;52.788;6.940;2022-11-20T13:36:19;3.10;99.90
53208;DHT22;39093;52.788;6.940;2022-11-20T13:38:49;3.20;99.90
53208;DHT22;39093;52.788;6.940;2022-11-20T13:41:43;3.20;99.90
53208;DHT22;39093;52.788;6.940;2022-11-20T13:44:37;3.20;99.90
53208;DHT22;39093;52.788;6.940;2022-11-20T13:47:23;3.20;99.90
53208;DHT22;39093;52.788;6.940;2022-11-20T13:49:52;3.20;99.90
53208;DHT22;39093;52.788;6.940;2022-11-20T13:55:23;3.10;99.90
53208;DHT22;39093;52.788;6.940;2022-11-20T14:01:10;3.10;99.90
53208;DHT22;39093;52.788;6.940;2022-11-20T14:03:41;3.10;99.90
53208;DHT22;39093;52.788;6.940;2022-11-20T14:06:30;3.10;99.90
53208;DHT22;39093;52.788;6.940;2022-11-20T14:08:59;3.10;99.90
53208;DHT22;39093;52.788;6.940;2022-11-20T14:11:30;3.10;99.90
53208;DHT22;39093;52.788;6.940;2022-11-20T14:14:18;3.10;99.90
53208;DHT22;39093;52.788;6.940;2022-11-20T14:16:47;3.00;99.90
53208;DHT22;39093;52.788;6.940;2022-11-20T14:19:27;3.00;99.90
53208;DHT22;39093;52.788;6.940;2022-11-20T14:24:46;2.90;99.90
53208;DHT22;39093;52.788;6.940;2022-11-20T14:27:15;2.90;99.90
53208;DHT22;39093;52.788;6.940;2022-11-20T14:29:45;2.90;99.90
53208;DHT22;39093;52.788;6.940;2022-11-20T14:32:18;2.80;99.90
53208;DHT22;39093;52.788;6.940;2022-11-20T14:34:48;2.80;99.90
53208;DHT22;39093;52.788;6.940;2022-11-20T14:37:21;2.70;99.90
53208;DHT22;39093;52.788;6.940;2022-11-20T14:39:55;2.70;99.90
53208;DHT22;39093;52.788;6.940;2022-11-20T14:42:27;2.60;99.90
53208;DHT22;39093;52.788;6.940;2022-11-20T14:44:56;2.60;99.90
53208;DHT22;39093;52.788;6.940;2022-11-20T14:47:25;2.50;99.90
53208;DHT22;39093;52.788;6.940;2022-11-20T14:49:54;2.50;99.90
53208;DHT22;39093;52.788;6.940;2022-11-20T14:52:23;2.50;99.90
53208;DHT22;39093;52.788;6.940;2022-11-20T14:54:56;2.40;99.90
53208;DHT22;39093;52.788;6.940;2022-11-20T14:57:35;2.40;99.90
53208;DHT22;39093;52.788;6.940;2022-11-20T15:02:42;2.40;99.90
53208;DHT22;39093;52.788;6.940;2022-11-20T15:05:09;2.30;99.90
53208;DHT22;39093;52.788;6.940;2022-11-20T15:07:38;2.30;99.90
53208;DHT22;39093;52.788;6.940;2022-11-20T15:10:32;2.30;99.90
53208;DHT22;39093;52.788;6.940;2022-11-20T15:13:04;2.30;99.90
53208;DHT22;39093;52.788;6.940;2022-11-20T15:15:50;2.20;99.90
53208;DHT22;39093;52.788;6.940;2022-11-20T15:20:56;2.20;99.90
53208;DHT22;39093;52.788;6.940;2022-11-20T15:23:25;2.20;99.90
53208;DHT22;39093;52.788;6.940;2022-11-20T15:25:52;2.20;99.90
53208;DHT22;39093;52.788;6.940;2022-11-20T15:28:27;2.10;99.90
53208;DHT22;39093;52.788;6.940;2022-11-20T15:30:55;2.20;99.90
53208;DHT22;39093;52.788;6.940;2022-11-20T15:33:23;2.10;99.90
53208;DHT22;39093;52.788;6.940;2022-11-20T15:35:50;2.10;99.90
53208;DHT22;39093;52.788;6.940;2022-11-20T15:38:16;2.10;99.90
53208;DHT22;39093;52.788;6.940;2022-11-20T15:40:43;2.10;99.90
53208;DHT22;39093;52.788;6.940;2022-11-20T15:43:10;2.10;99.90
53208;DHT22;39093;52.788;6.940;2022-11-20T15:45:40;2.10;99.90
53208;DHT22;39093;52.788;6.940;2022-11-20T15:53:25;2.00;99.90
53208;DHT22;39093;52.788;6.940;2022-11-20T15:55:51;2.00;99.90
53208;DHT22;39093;52.788;6.940;2022-11-20T15:58:18;2.00;99.90
53208;DHT22;39093;52.788;6.940;2022-11-20T16:00:46;2.00;99.90
53208;DHT22;39093;52.788;6.940;2022-11-20T16:03:14;2.00;99.90
53208;DHT22;39093;52.788;6.940;2022-11-20T16:05:41;2.00;99.90
53208;DHT22;39093;52.788;6.940;2022-11-20T16:08:08;1.90;99.90
53208;DHT22;39093;52.788;6.940;2022-11-20T16:10:37;1.90;99.90
53208;DHT22;39093;52.788;6.940;2022-11-20T16:13:12;1.90;99.90
53208;DHT22;39093;52.788;6.940;2022-11-20T16:15:59;1.90;99.90
53208;DHT22;39093;52.788;6.940;2022-11-20T16:18:27;1.90;99.90
53208;DHT22;39093;52.788;6.940;2022-11-20T16:20:54;1.80;99.90
53208;DHT22;39093;52.788;6.940;2022-11-20T16:23:22;1.80;99.90
53208;DHT22;39093;52.788;6.940;2022-11-20T16:25:49;1.80;99.90
53208;DHT22;39093;52.788;6.940;2022-11-20T16:28:17;1.80;99.90
53208;DHT22;39093;52.788;6.940;2022-11-20T16:30:45;1.80;99.90
53208;DHT22;39093;52.788;6.940;2022-11-20T16:33:15;1.90;99.90
53208;DHT22;39093;52.788;6.940;2022-11-20T16:35:43;1.80;99.90
53208;DHT22;39093;52.788;6.940;2022-11-20T16:38:10;1.80;99.90
53208;DHT22;39093;52.788;6.940;2022-11-20T16:40:37;1.80;99.90
53208;DHT22;39093;52.788;6.940;2022-11-20T16:43:10;1.70;99.90
53208;DHT22;39093;52.788;6.940;2022-11-20T16:45:42;1.80;99.90
53208;DHT22;39093;52.788;6.940;2022-11-20T16:48:14;1.80;99.90
53208;DHT22;39093;52.788;6.940;2022-11-20T16:50:46;1.80;99.90
53208;DHT22;39093;52.788;6.940;2022-11-20T16:53:13;1.70;99.90
53208;DHT22;39093;52.788;6.940;2022-11-20T16:55:40;1.70;99.90
53208;DHT22;39093;52.788;6.940;2022-11-20T16:58:07;1.70;99.90
53208;DHT22;39093;52.788;6.940;2022-11-20T17:00:39;1.70;99.90
53208;DHT22;39093;52.788;6.940;2022-11-20T17:03:07;1.70;99.90
53208;DHT22;39093;52.788;6.940;2022-11-20T17:05:34;1.70;99.90
53208;DHT22;39093;52.788;6.940;2022-11-20T17:08:01;1.80;99.90
53208;DHT22;39093;52.788;6.940;2022-11-20T17:10:28;1.80;99.90
53208;DHT22;39093;52.788;6.940;2022-11-20T17:12:55;1.70;99.90
53208;DHT22;39093;52.788;6.940;2022-11-20T17:15:21;1.70;99.90
53208;DHT22;39093;52.788;6.940;2022-11-20T17:17:48;1.70;99.90
53208;DHT22;39093;52.788;6.940;2022-11-20T17:20:15;1.70;99.90
53208;DHT22;39093;52.788;6.940;2022-11-20T17:22:42;1.70;99.90
53208;DHT22;39093;52.788;6.940;2022-11-20T17:25:09;1.70;99.90
53208;DHT22;39093;52.788;6.940;2022-11-20T17:27:36;1.80;99.90
53208;DHT22;39093;52.788;6.940;2022-11-20T17:30:03;1.70;99.90
53208;DHT22;39093;52.788;6.940;2022-11-20T17:32:29;1.70;99.90
53208;DHT22;39093;52.788;6.940;2022-11-20T17:34:56;1.70;99.90
53208;DHT22;39093;52.788;6.940;2022-11-20T17:37:26;2.00;99.90
53208;DHT22;39093;52.788;6.940;2022-11-20T17:39:53;1.70;99.90
53208;DHT22;39093;52.788;6.940;2022-11-20T17:42:20;1.70;99.90
53208;DHT22;39093;52.788;6.940;2022-11-20T17:44:52;1.70;99.90
53208;DHT22;39093;52.788;6.940;2022-11-20T17:47:19;1.70;99.90
53208;DHT22;39093;52.788;6.940;2022-11-20T17:49:46;1.70;99.90
53208;DHT22;39093;52.788;6.940;2022-11-20T17:52:13;1.70;99.90
53208;DHT22;39093;52.788;6.940;2022-11-20T17:54:40;1.70;99.90
53208;DHT22;39093;52.788;6.940;2022-11-20T17:57:08;1.60;99.90